Hawaii METAR Reports

 

PHOG - Kahului, Hawaii, USA
Distance from station: WNW 8mi, 13km
Updated: Fri, 03-Jul-2020 11:54pm HST
Few Clouds
Few Clouds
 Wind from SE
Wind: SE 5 mph , 7 km/h
Temperature: 75°F , 24°C
Dew Point: 66°F , 19°C
Humidity: 74%
Barometer: 29.98 inHg , 1015.2 hPa
Clouds: Few Clouds
Visibility: 10 miles , 16 km
Cloud details: Few Clouds 4100 ft
2020/07/04 09:54 PHOG 040954Z AUTO 13004KT 10SM FEW041 24/19 A2998 RMK AO2 SLP156 T02440194 403220239 TSNO
PHJH - Lahaina/West Mau, Hawaii, USA
Distance from station: WNW 24mi, 39km
Updated: Fri, 03-Jul-2020 5:45pm HST
NOT Current
Partly Cloudy
Partly Cloudy
 Wind from NE
Wind: NE 8 mph , 13 km/h, Gust: 16 mph , 26 km/h
Temperature: 79°F , 26°C
Dew Point: 66°F , 19°C
Humidity: 65%
Barometer: 29.94 inHg , 1013.9 hPa
Clouds: Partly Cloudy
Visibility: 15 miles , 24 km
Cloud details: Partly Cloudy 3500 ft
2020/07/04 03:45 PHJH 040345Z 05007G14KT 15SM SCT035 26/19 A2994 RMK LAST
 
PHNY - Lanai City Airpo, Hawaii, USA
Distance from station: W 40mi, 65km
Updated: Sat, 04-Jul-2020 12:06am HST
Mostly Cloudy
Mostly Cloudy
 Wind from N
Wind: N 6 mph , 9 km/h
Temperature: 70°F , 21°C
Barometer: 30.05 inHg , 1017.6 hPa
Clouds: Mostly Cloudy
Visibility: 10 miles , 16 km
Cloud details: Partly Cloudy 1500 ft
Mostly Cloudy 7000 ft
2020/07/04 10:06 PHNY 041006Z AUTO 36005KT 10SM SCT015 BKN070 21/ A3005 RMK AO2
PHMK - Molokai, Hawaii, USA
Distance from station: WNW 55mi, 88km
Updated: Fri, 03-Jul-2020 11:54pm HST
Overcast
Overcast
 Wind from N
Wind: N 3 mph , 6 km/h
Temperature: 75°F , 24°C
Dew Point: 68°F , 20°C
Humidity: 78%
Barometer: 30.00 inHg , 1015.9 hPa
Clouds: Overcast
Visibility: 10 miles , 16 km
Cloud details: Partly Cloudy 4900 ft
Overcast 6000 ft
2020/07/04 09:54 PHMK 040954Z AUTO 35003KT 10SM SCT049 OVC060 24/20 A3000 RMK AO2 SLP161 T02390200 402830217 TSNO
 
PHKO - Kailua/Kona, Hawaii, USA
Distance from station: SSE 79mi, 128km
Updated: Sat, 04-Jul-2020 12:53am HST
Overcast
Overcast
 Wind from NNE
Wind: NNE 7 mph , 11 km/h
Temperature: 77°F , 25°C
Dew Point: 70°F , 21°C
Humidity: 79%
Barometer: 29.96 inHg , 1014.6 hPa
Clouds: Overcast
Visibility: 10 miles , 16 km
Cloud details: Few Clouds 1600 ft
Overcast 3700 ft
2020/07/04 10:53 PHKO 041053Z AUTO 03006KT 10SM FEW016 OVC037 25/21 A2996 RMK AO2 SLP143 T02500211 TSNO
PHSF - Bradshaw Aaf/Haw, Hawaii, USA
Distance from station: SE 90mi, 145km
Updated: Fri, 03-Jul-2020 11:58pm HST
Clear
Clear
 Wind from ESE
Wind: ESE 12 mph , 19 km/h, Gust: 21 mph , 33 km/h
Temperature: 61°F , 16°C
Dew Point: 48°F , 9°C
Humidity: 63%
Barometer: 30.31 inHg , 1026.4 hPa
Clouds: Clear
Visibility: 10 miles , 16 km
2020/07/04 09:58 PHSF 040958Z AUTO 11010G18KT 10SM CLR 16/09 A3031 RMK AO2 SLP134 T01550091 402320071 $
 
PHNG - Kaneohe Mcas, Hawaii, USA
Distance from station: WNW 102mi, 164km
Updated: Fri, 03-Jul-2020 11:57pm HST
Mostly Cloudy
Mostly Cloudy
 Wind from E
Wind: E 7 mph , 11 km/h
Barometer: 29.97 inHg , 1014.9 hPa
Clouds: Mostly Cloudy
Visibility: 10 miles , 16 km
Cloud details: Few Clouds 2100 ft
Mostly Cloudy 6000 ft
2020/07/04 09:57 PHNG 040957Z AUTO 09006KT 10SM FEW021 BKN060 A2997 RMK AO2 SLP145 $
PHNL - Honolulu, Hawaii, USA
Distance from station: WNW 108mi, 174km
Updated: Sat, 04-Jul-2020 12:53am HST
Mostly Cloudy
Mostly Cloudy
 Wind from ENE
Wind: ENE 5 mph , 7 km/h
Temperature: 77°F , 25°C
Dew Point: 70°F , 21°C
Humidity: 79%
Barometer: 29.98 inHg , 1015.2 hPa
Clouds: Mostly Cloudy
Visibility: 10 miles , 16 km
Cloud details: Few Clouds 2000 ft
Few Clouds 4000 ft
Mostly Cloudy 6000 ft
2020/07/04 10:53 PHNL 041053Z 06004KT 10SM FEW020 FEW040 BKN060 25/21 A2998 RMK VCSH NE
 
PHTO - Hilo, Hawaii, USA
Distance from station: SE 114mi, 183km
Updated: Sat, 04-Jul-2020 12:53am HST
Light rain, Mist, Overcast
Light rain, Mist, Overcast
 Wind from calm
Wind: Calm
Temperature: 73°F , 23°C
Dew Point: 70°F , 21°C
Humidity: 89%
Barometer: 30.00 inHg , 1015.9 hPa
Summary: Light rain, Mist
Clouds: Overcast
Visibility: 6 miles , 10 km
Cloud details: Overcast 3800 ft
2020/07/04 10:53 PHTO 041053Z AUTO 00000KT 6SM -RA BR OVC038 23/21 A3000 RMK AO2 RAB11 SLP157 P0004 T02330211 TSNO
PHJR - Kalaeloa, Hawaii, USA
Distance from station: WNW 117mi, 189km
Updated: Sat, 04-Jul-2020 12:53am HST
Partly Cloudy
Partly Cloudy
 Wind from ENE
Wind: ENE 3 mph , 6 km/h
Temperature: 75°F , 24°C
Dew Point: 68°F , 20°C
Humidity: 78%
Barometer: 29.99 inHg , 1015.6 hPa
Clouds: Partly Cloudy
Visibility: 10 miles , 16 km
Cloud details: Few Clouds 4500 ft
Partly Cloudy 9000 ft
2020/07/04 10:53 PHJR 041053Z AUTO 06003KT 10SM FEW045 SCT090 24/20 A2999 RMK AO2 SLP161 T02390200 PWINO TSNO $
 
PHHI - Wheeler Afb/Oahu, Hawaii, USA
Distance from station: WNW 120mi, 193km
Updated: Sat, 04-Jul-2020 12:16am HST
Mostly Cloudy
Mostly Cloudy
 Wind from calm
Wind: Calm
Temperature: 72°F , 22°C
Dew Point: 68°F , 20°C
Humidity: 88%
Barometer: 30.02 inHg , 1016.6 hPa
Clouds: Mostly Cloudy
Visibility: 10 miles , 16 km
Cloud details: Partly Cloudy 2300 ft
Mostly Cloudy 3200 ft
2020/07/04 10:16 PHHI 041016Z AUTO 00000KT 10SM SCT023 BKN032 22/20 A3002 RMK AO2 SLP154 $
PHLI - Lihue/Kauai Is, Hawaii, USA
Distance from station: WNW 209mi, 336km
Updated: Sat, 04-Jul-2020 12:53am HST
Overcast
Overcast
 Wind from N
Wind: N 8 mph , 13 km/h
Temperature: 75°F , 24°C
Dew Point: 73°F , 23°C
Humidity: 94%
Barometer: 30.00 inHg , 1015.9 hPa
Clouds: Overcast
Visibility: 10 miles , 16 km
Cloud details: Mostly Cloudy 1800 ft
Overcast 3200 ft
2020/07/04 10:53 PHLI 041053Z AUTO 35007KT 10SM BKN018 OVC032 24/23 A3000 RMK AO2 RAB0956E11 SLP155 P0006 T02390233 TSNO
 
PHBK - Barking Sands/Ka, Hawaii, USA
Distance from station: WNW 237mi, 382km
Updated: Fri, 03-Jul-2020 11:56pm HST
Clear
Clear
 Wind from ENE
Wind: ENE 5 mph , 7 km/h
Temperature: 75°F , 24°C
Dew Point: 64°F , 18°C
Humidity: 69%
Barometer: 29.98 inHg , 1015.2 hPa
Clouds: Clear
Visibility: 10 miles , 16 km
2020/07/04 09:56 PHBK 040956Z AUTO 07004KT 10SM CLR 24/18 A2998 RMK AO2 SLP155 T02390183 403000222 $